Ossining, New York
Current Conditions -  °F | °C
As of 7:56 PM on Wednesday 17 Dec 2014 (Local Time) from KHPN Reporting Station
Broken Clouds Broken Clouds  
Wind Chill: 34°   Ceiling: 7000
Heat Index: 42°   Visibility: 10mi
Dew Point: 31°   Wind: 16mph
Humidity: 65%   Direction: 300°WNW
Pressure: 29.85"   Gusts: 21mph
Location:  41.16°N, 73.86°W
Report Text: KHPN 180056Z 30014G18KT 10SM BKN070 06/M01 A2985 RMK AO2 SLP113 T00561006
Loading
Personal Weather Stations






























Interactive Weather Map New forecast layout! Learn more

10-Day Weather Forecast

Advertisements
Track Severe Weather on mobile